createdAt,value
2023-04-16T00:00:45.818Z,100679.97
2023-04-16T00:05:43.164Z,100674.19
2023-04-16T00:10:39.911Z,100672.13
2023-04-16T00:15:39.403Z,100687.63
2023-04-16T00:20:36.287Z,100694.53
2023-04-16T00:25:33.793Z,100689.78
2023-04-16T00:30:30.640Z,100694.34
2023-04-16T00:35:27.348Z,100695.75
2023-04-16T00:40:27.041Z,100696.25
2023-04-16T00:45:24.221Z,100702.53
2023-04-16T00:50:21.469Z,100691.91
2023-04-16T00:55:18.722Z,100689.03
2023-04-16T01:00:15.594Z,100682.28
2023-04-16T01:05:12.869Z,100686.00
2023-04-16T01:10:09.498Z,100686.13
2023-04-16T01:15:06.966Z,100688.16
2023-04-16T01:20:03.744Z,100682.69
2023-04-16T01:25:01.125Z,100685.69
2023-04-16T01:29:57.787Z,100690.97
2023-04-16T01:35:07.080Z,100684.63
2023-04-16T01:40:04.878Z,100690.09
2023-04-16T01:45:01.633Z,100675.13
2023-04-16T01:49:59.147Z,100700.88
2023-04-16T01:54:55.878Z,100694.97
2023-04-16T01:59:53.165Z,100688.03
2023-04-16T02:04:51.359Z,100696.53
2023-04-16T02:09:49.626Z,100686.25
2023-04-16T02:14:46.171Z,100681.25
2023-04-16T02:19:45.835Z,100682.09
2023-04-16T02:24:42.455Z,100671.94
2023-04-16T02:29:40.644Z,100674.56
2023-04-16T02:34:43.131Z,100674.34
2023-04-16T02:39:43.278Z,100675.97
2023-04-16T02:44:39.970Z,100669.63
2023-04-16T02:49:36.732Z,100666.78
2023-04-16T02:54:33.506Z,100661.19
2023-04-16T02:59:32.099Z,100663.22
2023-04-16T03:04:30.160Z,100667.47
2023-04-16T03:09:26.920Z,100669.38
2023-04-16T03:14:23.566Z,100660.94
2023-04-16T03:19:21.048Z,100658.63
2023-04-16T03:24:17.629Z,100664.75
2023-04-16T03:29:14.322Z,100661.91
2023-04-16T03:34:11.761Z,100660.81
2023-04-16T03:39:11.080Z,100669.63
2023-04-16T03:44:08.142Z,100667.63
2023-04-16T03:49:05.343Z,100658.53
2023-04-16T03:54:02.139Z,100665.84
2023-04-16T03:59:03.104Z,100665.44
2023-04-16T04:04:00.240Z,100673.75
2023-04-16T04:08:56.996Z,100681.84
2023-04-16T04:13:56.684Z,100679.59
2023-04-16T04:18:55.066Z,100684.97
2023-04-16T04:23:53.911Z,100688.16
2023-04-16T04:28:51.417Z,100689.16
2023-04-16T04:33:48.925Z,100688.97
2023-04-16T04:38:46.914Z,100691.19
2023-04-16T04:43:45.502Z,100696.38
2023-04-16T04:48:42.395Z,100704.59
2023-04-16T04:53:39.221Z,100708.94
2023-04-16T04:58:38.257Z,100711.72
2023-04-16T05:03:35.177Z,100707.63
2023-04-16T05:08:31.835Z,100713.03
2023-04-16T05:13:28.504Z,100715.06
2023-04-16T05:18:27.987Z,100710.47
2023-04-16T05:23:24.704Z,100711.09
2023-04-16T05:28:21.445Z,100714.28
2023-04-16T05:33:18.225Z,100711.97
2023-04-16T05:38:15.527Z,100708.28
2023-04-16T05:43:13.459Z,100714.75
2023-04-16T05:48:13.281Z,100708.94
2023-04-16T05:53:10.355Z,100715.88
2023-04-16T05:58:07.639Z,100706.72
2023-04-16T06:03:04.662Z,100715.50
2023-04-16T06:08:01.335Z,100710.22
2023-04-16T06:12:57.987Z,100714.81
2023-04-16T06:17:55.692Z,100702.41
2023-04-16T06:22:52.321Z,100691.09
2023-04-16T06:27:48.989Z,100706.38
2023-04-16T06:32:47.041Z,100681.09
2023-04-16T06:37:44.505Z,100700.50
2023-04-16T06:42:43.576Z,100696.63
2023-04-16T06:47:41.995Z,100703.56
2023-04-16T06:52:38.858Z,100695.97
2023-04-16T06:57:37.508Z,100692.47
2023-04-16T07:02:35.087Z,100712.81
2023-04-16T07:07:32.155Z,100701.75
2023-04-16T07:12:28.786Z,100700.44
2023-04-16T07:17:26.124Z,100710.75
2023-04-16T07:22:22.786Z,100702.78
2023-04-16T07:27:21.476Z,100712.50
2023-04-16T07:32:18.158Z,100713.03
2023-04-16T07:37:19.779Z,100719.72
2023-04-16T07:42:16.465Z,100715.34
2023-04-16T07:47:13.051Z,100711.81
2023-04-16T07:52:09.824Z,100691.78
2023-04-16T07:57:08.412Z,100700.78
2023-04-16T08:02:05.668Z,100698.53
2023-04-16T08:07:02.357Z,100698.91
2023-04-16T08:12:00.114Z,100697.22
2023-04-16T08:16:57.385Z,100706.03
2023-04-16T08:21:54.372Z,100702.63
2023-04-16T08:26:53.523Z,100709.56
2023-04-16T08:31:50.322Z,100697.22
2023-04-16T08:36:47.924Z,100695.81
2023-04-16T08:41:46.303Z,100694.09
2023-04-16T08:46:44.106Z,100693.94
2023-04-16T08:51:41.838Z,100697.78
2023-04-16T08:56:42.993Z,100662.34
2023-04-16T09:01:43.704Z,100680.41
2023-04-16T09:06:41.077Z,100676.72
2023-04-16T09:11:38.913Z,100667.22
2023-04-16T09:16:36.886Z,100693.88
2023-04-16T09:21:35.695Z,100653.25
2023-04-16T09:26:32.604Z,100672.69
2023-04-16T09:31:31.680Z,100665.78
2023-04-16T09:36:32.377Z,100647.75
2023-04-16T09:41:30.170Z,100662.44
2023-04-16T09:46:29.875Z,100659.78
2023-04-16T09:51:27.834Z,100659.16
2023-04-16T09:56:27.369Z,100640.47
2023-04-16T10:01:24.392Z,100643.53
2023-04-16T10:06:22.391Z,100625.81
2023-04-16T10:11:20.729Z,100632.72
2023-04-16T10:16:18.133Z,100621.59
2023-04-16T10:21:16.618Z,100618.81
2023-04-16T10:26:13.414Z,100609.91
2023-04-16T10:31:11.313Z,100616.44
2023-04-16T10:36:10.549Z,100613.91
2023-04-16T10:41:08.734Z,100606.16
2023-04-16T10:46:18.871Z,100607.81
2023-04-16T10:51:27.194Z,100610.97
2023-04-16T10:56:24.766Z,100614.44
2023-04-16T11:01:26.821Z,100625.13
2023-04-16T11:06:25.761Z,100639.72
2023-04-16T11:11:22.543Z,100628.75
2023-04-16T11:16:19.149Z,100608.25
2023-04-16T11:21:16.730Z,100630.94
2023-04-16T11:26:20.967Z,100624.09
2023-04-16T11:31:17.729Z,100627.59
2023-04-16T11:36:14.447Z,100624.44
2023-04-16T11:41:19.075Z,100603.13
2023-04-16T11:46:26.733Z,100615.38
2023-04-16T11:51:24.315Z,100602.38
2023-04-16T11:56:27.921Z,100595.69
2023-04-16T12:01:25.421Z,100586.97
2023-04-16T12:06:23.296Z,100587.47
2023-04-16T12:11:21.726Z,100573.50
2023-04-16T12:16:20.021Z,100574.19
2023-04-16T12:21:17.573Z,100568.31
2023-04-16T12:26:14.564Z,100570.47
2023-04-16T12:31:11.544Z,100542.34
2023-04-16T12:36:19.014Z,100550.97
2023-04-16T12:41:15.621Z,100568.00
2023-04-16T12:46:12.343Z,100560.44
2023-04-16T12:51:09.029Z,100554.81
2023-04-16T12:56:06.366Z,100558.44
2023-04-16T13:01:04.933Z,100544.34
2023-04-16T13:06:01.774Z,100544.97
2023-04-16T13:10:58.515Z,100560.81
2023-04-16T13:15:55.929Z,100584.03
2023-04-16T13:20:52.849Z,100582.19
2023-04-16T13:25:50.642Z,100568.22
2023-04-16T13:36:51.639Z,100586.56
2023-04-16T13:41:48.432Z,100577.47
2023-04-16T13:53:01.868Z,100572.88
2023-04-16T13:57:58.783Z,100570.97
2023-04-16T14:02:55.638Z,100548.28
2023-04-16T14:07:52.230Z,100574.75
2023-04-16T14:12:50.126Z,100582.41
2023-04-16T14:17:46.906Z,100571.78
2023-04-16T14:22:46.742Z,100581.19
2023-04-16T14:27:43.410Z,100579.41
2023-04-16T14:32:40.724Z,100560.41
2023-04-16T14:37:38.282Z,100585.38
2023-04-16T14:42:36.056Z,100577.97
2023-04-16T14:47:33.582Z,100583.19
2023-04-16T14:52:31.500Z,100575.53
2023-04-16T14:57:28.290Z,100603.53
2023-04-16T15:02:25.476Z,100604.47
2023-04-16T15:07:22.256Z,100605.72
2023-04-16T15:12:19.422Z,100609.38
2023-04-16T15:17:15.978Z,100611.47
2023-04-16T15:22:14.156Z,100604.19
2023-04-16T15:27:12.012Z,100600.13
2023-04-16T15:32:09.333Z,100621.50
2023-04-16T15:37:09.152Z,100624.63
2023-04-16T15:42:07.310Z,100624.69
2023-04-16T15:47:05.922Z,100626.63
2023-04-16T15:52:03.389Z,100624.13
2023-04-16T15:57:00.147Z,100628.38
2023-04-16T16:01:56.819Z,100629.75
2023-04-16T16:06:53.631Z,100631.13
2023-04-16T16:11:51.022Z,100637.56
2023-04-16T16:16:47.768Z,100629.25
2023-04-16T16:21:44.488Z,100645.59
2023-04-16T16:26:41.334Z,100647.22
2023-04-16T16:31:38.944Z,100628.44
2023-04-16T16:36:37.488Z,100663.00
2023-04-16T16:41:36.983Z,100662.28
2023-04-16T16:46:33.574Z,100663.47
2023-04-16T16:51:32.976Z,100673.72
2023-04-16T16:56:29.708Z,100668.19
2023-04-16T17:01:29.129Z,100671.25
2023-04-16T17:06:26.525Z,100678.53
2023-04-16T17:11:26.349Z,100673.22
2023-04-16T17:16:23.569Z,100676.22
2023-04-16T17:21:20.400Z,100684.28
2023-04-16T17:26:17.006Z,100695.03
2023-04-16T17:31:15.344Z,100690.97
2023-04-16T17:36:12.025Z,100686.53
2023-04-16T17:41:08.627Z,100690.78
2023-04-16T17:46:05.336Z,100697.03
2023-04-16T17:51:09.101Z,100697.44
2023-04-16T17:56:06.472Z,100690.44
2023-04-16T18:01:03.627Z,100708.44
2023-04-16T18:06:00.429Z,100701.09
2023-04-16T18:10:57.696Z,100713.03
2023-04-16T18:15:54.376Z,100725.84
2023-04-16T18:20:52.135Z,100729.66
2023-04-16T18:25:49.707Z,100725.22
2023-04-16T18:30:47.466Z,100719.72
2023-04-16T18:35:44.617Z,100737.31
2023-04-16T18:40:41.751Z,100745.47
2023-04-16T18:45:38.507Z,100748.72
2023-04-16T18:50:35.858Z,100759.41
2023-04-16T18:55:33.754Z,100750.81
2023-04-16T19:00:31.507Z,100753.03
2023-04-16T19:05:28.535Z,100749.66
2023-04-16T19:10:25.848Z,100740.44
2023-04-16T19:15:22.595Z,100745.91
2023-04-16T19:20:22.316Z,100737.19
2023-04-16T19:25:20.543Z,100738.53
2023-04-16T19:30:21.173Z,100737.84
2023-04-16T19:35:29.577Z,100737.72
2023-04-16T19:40:29.133Z,100735.56
2023-04-16T19:45:26.986Z,100744.72
2023-04-16T19:50:23.796Z,100734.69
2023-04-16T19:55:20.383Z,100742.22
2023-04-16T20:00:17.461Z,100726.63
2023-04-16T20:05:17.798Z,100736.94
2023-04-16T20:10:14.752Z,100737.81
2023-04-16T20:15:11.625Z,100735.84
2023-04-16T20:20:11.739Z,100739.06
2023-04-16T20:25:09.842Z,100748.00
2023-04-16T20:30:06.991Z,100736.63
2023-04-16T20:35:04.943Z,100746.13
2023-04-16T20:40:01.600Z,100742.69
2023-04-16T20:45:00.556Z,100743.69
2023-04-16T20:49:57.606Z,100743.81
2023-04-16T20:54:54.202Z,100760.50
2023-04-16T20:59:50.867Z,100749.22
2023-04-16T21:04:48.466Z,100755.09
2023-04-16T21:09:45.257Z,100750.91
2023-04-16T21:14:41.915Z,100757.09
2023-04-16T21:19:39.574Z,100757.41
2023-04-16T21:24:37.869Z,100753.59
2023-04-16T21:29:34.644Z,100752.25
2023-04-16T21:34:31.276Z,100749.97
2023-04-16T21:39:30.288Z,100736.56
2023-04-16T21:44:27.510Z,100750.53
2023-04-16T21:49:24.145Z,100747.84
2023-04-16T21:54:22.255Z,100753.13
2023-04-16T21:59:18.873Z,100743.03
2023-04-16T22:04:17.248Z,100730.56
2023-04-16T22:09:14.818Z,100753.19
2023-04-16T22:14:11.604Z,100725.78
2023-04-16T22:19:11.724Z,100757.13
2023-04-16T22:24:09.290Z,100758.69
2023-04-16T22:29:05.978Z,100753.28
2023-04-16T22:34:03.626Z,100747.06
2023-04-16T22:39:00.448Z,100751.41
2023-04-16T22:43:57.669Z,100750.03
2023-04-16T22:48:54.403Z,100741.28
2023-04-16T22:53:51.562Z,100737.50
2023-04-16T22:58:49.034Z,100738.34
2023-04-16T23:03:46.408Z,100724.31
2023-04-16T23:08:44.355Z,100734.84
2023-04-16T23:13:42.091Z,100729.97
2023-04-16T23:18:38.720Z,100727.94
2023-04-16T23:23:36.042Z,100725.75
2023-04-16T23:28:32.593Z,100724.19
2023-04-16T23:33:29.182Z,100730.91
2023-04-16T23:38:25.852Z,100740.22
2023-04-16T23:43:24.841Z,100723.41
2023-04-16T23:48:21.318Z,100731.75
2023-04-16T23:53:17.886Z,100731.16
2023-04-16T23:58:14.507Z,100729.38
